sensor_id;sensor_type;location;lat;lon;timestamp;pressure;altitude;pressure_sealevel;temperature;humidity
2675;BME280;1347;42.122;24.746;2024-03-17T00:02:14;99892.91;;;9.93;89.57
2675;BME280;1347;42.122;24.746;2024-03-17T00:04:41;99895.91;;;9.88;89.74
2675;BME280;1347;42.122;24.746;2024-03-17T00:07:09;99888.44;;;9.85;90.07
2675;BME280;1347;42.122;24.746;2024-03-17T00:09:36;99883.56;;;9.78;90.99
2675;BME280;1347;42.122;24.746;2024-03-17T00:12:02;99885.00;;;9.72;91.71
2675;BME280;1347;42.122;24.746;2024-03-17T00:14:29;99883.16;;;9.60;91.80
2675;BME280;1347;42.122;24.746;2024-03-17T00:16:55;99881.84;;;9.54;92.79
2675;BME280;1347;42.122;24.746;2024-03-17T00:19:23;99875.81;;;9.49;93.10
2675;BME280;1347;42.122;24.746;2024-03-17T00:21:49;99882.44;;;9.48;93.12
2675;BME280;1347;42.122;24.746;2024-03-17T00:24:19;99885.16;;;9.32;94.66
2675;BME280;1347;42.122;24.746;2024-03-17T00:26:45;99883.13;;;9.29;95.17
2675;BME280;1347;42.122;24.746;2024-03-17T00:29:12;99881.03;;;9.22;96.38
2675;BME280;1347;42.122;24.746;2024-03-17T00:31:38;99877.13;;;9.23;95.95
2675;BME280;1347;42.122;24.746;2024-03-17T00:34:05;99883.09;;;8.98;97.03
2675;BME280;1347;42.122;24.746;2024-03-17T00:36:31;99886.19;;;8.68;100.00
2675;BME280;1347;42.122;24.746;2024-03-17T00:38:57;99875.22;;;8.53;100.00
2675;BME280;1347;42.122;24.746;2024-03-17T00:41:25;99876.72;;;8.38;100.00
2675;BME280;1347;42.122;24.746;2024-03-17T00:43:51;99876.16;;;8.20;100.00
2675;BME280;1347;42.122;24.746;2024-03-17T00:46:19;99867.06;;;8.16;100.00
2675;BME280;1347;42.122;24.746;2024-03-17T00:48:47;99868.34;;;8.06;100.00
2675;BME280;1347;42.122;24.746;2024-03-17T00:51:13;99871.06;;;7.94;100.00
2675;BME280;1347;42.122;24.746;2024-03-17T00:53:40;99882.69;;;7.91;100.00
2675;BME280;1347;42.122;24.746;2024-03-17T00:56:06;99872.13;;;7.90;100.00
2675;BME280;1347;42.122;24.746;2024-03-17T00:58:34;99866.53;;;7.86;100.00
2675;BME280;1347;42.122;24.746;2024-03-17T01:01:00;99876.31;;;7.87;100.00
2675;BME280;1347;42.122;24.746;2024-03-17T01:03:27;99875.53;;;7.87;100.00
2675;BME280;1347;42.122;24.746;2024-03-17T01:05:53;99872.00;;;7.86;100.00
2675;BME280;1347;42.122;24.746;2024-03-17T01:08:20;99880.88;;;7.83;100.00
2675;BME280;1347;42.122;24.746;2024-03-17T01:10:47;99879.50;;;7.89;100.00
2675;BME280;1347;42.122;24.746;2024-03-17T01:13:15;99872.31;;;7.97;100.00
2675;BME280;1347;42.122;24.746;2024-03-17T01:15:43;99869.38;;;8.02;100.00
2675;BME280;1347;42.122;24.746;2024-03-17T01:18:10;99872.00;;;7.98;100.00
2675;BME280;1347;42.122;24.746;2024-03-17T01:20:37;99880.31;;;8.02;100.00
2675;BME280;1347;42.122;24.746;2024-03-17T01:23:04;99879.38;;;8.10;100.00
2675;BME280;1347;42.122;24.746;2024-03-17T01:25:30;99873.56;;;8.11;100.00
2675;BME280;1347;42.122;24.746;2024-03-17T01:27:58;99869.38;;;8.14;100.00
2675;BME280;1347;42.122;24.746;2024-03-17T01:30:24;99870.59;;;8.17;100.00
2675;BME280;1347;42.122;24.746;2024-03-17T01:32:52;99870.25;;;8.18;100.00
2675;BME280;1347;42.122;24.746;2024-03-17T01:35:18;99865.59;;;8.19;100.00
2675;BME280;1347;42.122;24.746;2024-03-17T01:37:45;99866.72;;;8.18;100.00
2675;BME280;1347;42.122;24.746;2024-03-17T01:40:11;99861.84;;;8.11;100.00
2675;BME280;1347;42.122;24.746;2024-03-17T01:42:39;99861.41;;;8.09;100.00
2675;BME280;1347;42.122;24.746;2024-03-17T01:45:23;99859.00;;;8.07;100.00
2675;BME280;1347;42.122;24.746;2024-03-17T01:47:53;99870.97;;;8.03;100.00
2675;BME280;1347;42.122;24.746;2024-03-17T01:50:20;99859.25;;;8.02;100.00
2675;BME280;1347;42.122;24.746;2024-03-17T01:52:51;99870.53;;;8.01;100.00
2675;BME280;1347;42.122;24.746;2024-03-17T01:55:17;99868.59;;;8.01;100.00
2675;BME280;1347;42.122;24.746;2024-03-17T01:57:44;99867.78;;;8.01;100.00
2675;BME280;1347;42.122;24.746;2024-03-17T02:00:11;99861.88;;;7.99;100.00
2675;BME280;1347;42.122;24.746;2024-03-17T02:02:40;99858.81;;;8.00;100.00
2675;BME280;1347;42.122;24.746;2024-03-17T02:05:07;99860.41;;;8.01;100.00
2675;BME280;1347;42.122;24.746;2024-03-17T02:07:35;99851.28;;;7.97;100.00
2675;BME280;1347;42.122;24.746;2024-03-17T02:10:02;99855.63;;;7.98;100.00
2675;BME280;1347;42.122;24.746;2024-03-17T02:12:31;99856.06;;;8.00;100.00
2675;BME280;1347;42.122;24.746;2024-03-17T02:14:57;99857.66;;;8.01;100.00
2675;BME280;1347;42.122;24.746;2024-03-17T02:17:24;99858.31;;;8.10;100.00
2675;BME280;1347;42.122;24.746;2024-03-17T02:19:51;99862.41;;;8.17;100.00
2675;BME280;1347;42.122;24.746;2024-03-17T02:22:19;99861.06;;;8.10;100.00
2675;BME280;1347;42.122;24.746;2024-03-17T02:24:45;99856.59;;;8.18;100.00
2675;BME280;1347;42.122;24.746;2024-03-17T02:27:13;99857.59;;;8.26;100.00
2675;BME280;1347;42.122;24.746;2024-03-17T02:29:39;99858.50;;;8.30;100.00
2675;BME280;1347;42.122;24.746;2024-03-17T02:32:06;99857.25;;;8.27;100.00
2675;BME280;1347;42.122;24.746;2024-03-17T02:34:33;99851.91;;;8.31;100.00
2675;BME280;1347;42.122;24.746;2024-03-17T02:37:00;99851.78;;;8.39;100.00
2675;BME280;1347;42.122;24.746;2024-03-17T02:39:27;99851.09;;;8.42;100.00
2675;BME280;1347;42.122;24.746;2024-03-17T02:42:04;99851.91;;;8.43;100.00
2675;BME280;1347;42.122;24.746;2024-03-17T02:44:31;99845.38;;;8.47;100.00
2675;BME280;1347;42.122;24.746;2024-03-17T02:46:59;99863.25;;;8.45;100.00
2675;BME280;1347;42.122;24.746;2024-03-17T02:49:26;99851.94;;;8.59;100.00
2675;BME280;1347;42.122;24.746;2024-03-17T02:51:53;99864.13;;;8.61;100.00
2675;BME280;1347;42.122;24.746;2024-03-17T02:54:20;99861.88;;;8.51;100.00
2675;BME280;1347;42.122;24.746;2024-03-17T02:56:49;99859.94;;;8.52;100.00
2675;BME280;1347;42.122;24.746;2024-03-17T02:59:16;99859.81;;;8.60;100.00
2675;BME280;1347;42.122;24.746;2024-03-17T03:01:43;99863.81;;;8.51;100.00
2675;BME280;1347;42.122;24.746;2024-03-17T03:04:11;99858.16;;;8.43;100.00
2675;BME280;1347;42.122;24.746;2024-03-17T03:06:38;99863.75;;;8.35;100.00
2675;BME280;1347;42.122;24.746;2024-03-17T03:09:05;99855.66;;;8.26;100.00
2675;BME280;1347;42.122;24.746;2024-03-17T03:11:38;99851.63;;;7.96;100.00
2675;BME280;1347;42.122;24.746;2024-03-17T03:14:06;99865.66;;;7.82;100.00
2675;BME280;1347;42.122;24.746;2024-03-17T03:16:33;99850.28;;;7.65;100.00
2675;BME280;1347;42.122;24.746;2024-03-17T03:19:00;99855.53;;;7.58;100.00
2675;BME280;1347;42.122;24.746;2024-03-17T03:21:27;99848.81;;;7.56;100.00
2675;BME280;1347;42.122;24.746;2024-03-17T03:23:54;99852.91;;;7.50;100.00
2675;BME280;1347;42.122;24.746;2024-03-17T03:26:20;99861.31;;;7.45;100.00
2675;BME280;1347;42.122;24.746;2024-03-17T03:28:49;99862.34;;;7.40;100.00
2675;BME280;1347;42.122;24.746;2024-03-17T03:31:17;99858.69;;;7.36;100.00
2675;BME280;1347;42.122;24.746;2024-03-17T03:33:44;99862.56;;;7.35;100.00
2675;BME280;1347;42.122;24.746;2024-03-17T03:36:12;99864.63;;;7.38;100.00
2675;BME280;1347;42.122;24.746;2024-03-17T03:38:40;99858.81;;;7.39;100.00
2675;BME280;1347;42.122;24.746;2024-03-17T03:41:08;99860.97;;;7.34;100.00
2675;BME280;1347;42.122;24.746;2024-03-17T03:43:35;99867.44;;;7.29;100.00
2675;BME280;1347;42.122;24.746;2024-03-17T03:46:03;99869.03;;;7.30;100.00
2675;BME280;1347;42.122;24.746;2024-03-17T03:48:32;99867.47;;;7.42;100.00
2675;BME280;1347;42.122;24.746;2024-03-17T03:51:03;99867.47;;;7.42;100.00
2675;BME280;1347;42.122;24.746;2024-03-17T03:53:31;99873.59;;;7.38;100.00
2675;BME280;1347;42.122;24.746;2024-03-17T03:55:58;99869.81;;;7.43;100.00
2675;BME280;1347;42.122;24.746;2024-03-17T03:58:27;99875.06;;;7.36;100.00
2675;BME280;1347;42.122;24.746;2024-03-17T04:00:54;99875.53;;;7.38;100.00
2675;BME280;1347;42.122;24.746;2024-03-17T04:03:21;99879.84;;;7.39;100.00
2675;BME280;1347;42.122;24.746;2024-03-17T04:05:49;99886.06;;;7.27;100.00
2675;BME280;1347;42.122;24.746;2024-03-17T04:08:18;99875.97;;;7.28;100.00
2675;BME280;1347;42.122;24.746;2024-03-17T04:10:45;99872.22;;;7.32;100.00
2675;BME280;1347;42.122;24.746;2024-03-17T04:13:12;99880.19;;;7.37;100.00
2675;BME280;1347;42.122;24.746;2024-03-17T04:15:39;99880.03;;;7.34;100.00
2675;BME280;1347;42.122;24.746;2024-03-17T04:18:06;99884.63;;;7.42;100.00
2675;BME280;1347;42.122;24.746;2024-03-17T04:20:33;99887.56;;;7.37;100.00
2675;BME280;1347;42.122;24.746;2024-03-17T04:23:01;99888.59;;;7.45;100.00
2675;BME280;1347;42.122;24.746;2024-03-17T04:25:28;99884.72;;;7.46;100.00
2675;BME280;1347;42.122;24.746;2024-03-17T04:27:55;99889.28;;;7.42;100.00
2675;BME280;1347;42.122;24.746;2024-03-17T04:30:23;99896.06;;;7.35;100.00
2675;BME280;1347;42.122;24.746;2024-03-17T04:32:50;99900.53;;;7.40;100.00
2675;BME280;1347;42.122;24.746;2024-03-17T04:35:17;99906.31;;;7.38;100.00
2675;BME280;1347;42.122;24.746;2024-03-17T04:37:44;99902.47;;;7.39;100.00
2675;BME280;1347;42.122;24.746;2024-03-17T04:40:13;99906.31;;;7.38;100.00
2675;BME280;1347;42.122;24.746;2024-03-17T04:42:40;99911.06;;;7.29;100.00
2675;BME280;1347;42.122;24.746;2024-03-17T04:45:08;99915.59;;;7.25;100.00
2675;BME280;1347;42.122;24.746;2024-03-17T04:47:36;99918.66;;;7.24;100.00
2675;BME280;1347;42.122;24.746;2024-03-17T04:50:04;99927.19;;;7.22;100.00
2675;BME280;1347;42.122;24.746;2024-03-17T04:52:31;99926.03;;;7.23;100.00
2675;BME280;1347;42.122;24.746;2024-03-17T04:54:58;99919.69;;;7.19;100.00
2675;BME280;1347;42.122;24.746;2024-03-17T04:57:26;99935.09;;;7.15;100.00
2675;BME280;1347;42.122;24.746;2024-03-17T04:59:53;99929.19;;;7.13;100.00
2675;BME280;1347;42.122;24.746;2024-03-17T05:02:20;99932.38;;;7.15;100.00
2675;BME280;1347;42.122;24.746;2024-03-17T05:04:48;99935.72;;;7.21;100.00
2675;BME280;1347;42.122;24.746;2024-03-17T05:07:15;99930.38;;;7.24;100.00
2675;BME280;1347;42.122;24.746;2024-03-17T05:09:42;99935.16;;;7.27;100.00
2675;BME280;1347;42.122;24.746;2024-03-17T05:12:10;99940.28;;;7.29;100.00
2675;BME280;1347;42.122;24.746;2024-03-17T05:14:39;99938.00;;;7.31;100.00
2675;BME280;1347;42.122;24.746;2024-03-17T05:17:06;99943.38;;;7.39;100.00
2675;BME280;1347;42.122;24.746;2024-03-17T05:19:33;99943.25;;;7.48;100.00
2675;BME280;1347;42.122;24.746;2024-03-17T05:22:00;99948.06;;;7.51;100.00
2675;BME280;1347;42.122;24.746;2024-03-17T05:24:27;99946.22;;;7.55;100.00
2675;BME280;1347;42.122;24.746;2024-03-17T05:26:54;99952.47;;;7.56;100.00
2675;BME280;1347;42.122;24.746;2024-03-17T05:29:20;99957.25;;;7.47;100.00
2675;BME280;1347;42.122;24.746;2024-03-17T05:31:49;99953.81;;;7.37;100.00
2675;BME280;1347;42.122;24.746;2024-03-17T05:34:16;99957.34;;;7.38;100.00
2675;BME280;1347;42.122;24.746;2024-03-17T05:36:43;99953.59;;;7.43;100.00
2675;BME280;1347;42.122;24.746;2024-03-17T05:39:12;99954.50;;;7.47;100.00
2675;BME280;1347;42.122;24.746;2024-03-17T05:41:39;99959.88;;;7.55;100.00
2675;BME280;1347;42.122;24.746;2024-03-17T05:44:06;99963.97;;;7.61;100.00
2675;BME280;1347;42.122;24.746;2024-03-17T05:46:33;99957.38;;;7.74;100.00
2675;BME280;1347;42.122;24.746;2024-03-17T05:49:02;99953.53;;;7.88;100.00
2675;BME280;1347;42.122;24.746;2024-03-17T05:51:29;99965.59;;;8.11;100.00
2675;BME280;1347;42.122;24.746;2024-03-17T05:53:56;99962.97;;;8.27;100.00
2675;BME280;1347;42.122;24.746;2024-03-17T05:56:24;99961.84;;;8.52;100.00
2675;BME280;1347;42.122;24.746;2024-03-17T05:58:50;99965.63;;;8.75;100.00
2675;BME280;1347;42.122;24.746;2024-03-17T06:01:17;99968.97;;;8.97;100.00
2675;BME280;1347;42.122;24.746;2024-03-17T06:03:44;99965.69;;;9.19;100.00
2675;BME280;1347;42.122;24.746;2024-03-17T06:06:13;99979.16;;;9.40;100.00
2675;BME280;1347;42.122;24.746;2024-03-17T06:08:40;99977.78;;;9.62;100.00
2675;BME280;1347;42.122;24.746;2024-03-17T06:11:07;99971.78;;;9.72;100.00
2675;BME280;1347;42.122;24.746;2024-03-17T06:13:34;99990.00;;;9.64;100.00
2675;BME280;1347;42.122;24.746;2024-03-17T06:16:02;99988.13;;;9.68;99.62
2675;BME280;1347;42.122;24.746;2024-03-17T06:18:30;99990.69;;;9.61;100.00
2675;BME280;1347;42.122;24.746;2024-03-17T06:20:57;99995.53;;;9.68;100.00
2675;BME280;1347;42.122;24.746;2024-03-17T06:23:26;99995.00;;;9.62;100.00
2675;BME280;1347;42.122;24.746;2024-03-17T06:25:55;99998.09;;;9.60;100.00
2675;BME280;1347;42.122;24.746;2024-03-17T06:28:22;99991.94;;;9.79;100.00
2675;BME280;1347;42.122;24.746;2024-03-17T06:30:55;99990.28;;;10.06;100.00
2675;BME280;1347;42.122;24.746;2024-03-17T06:33:25;99994.88;;;10.33;99.85
2675;BME280;1347;42.122;24.746;2024-03-17T06:35:52;100005.19;;;10.75;98.05
2675;BME280;1347;42.122;24.746;2024-03-17T06:38:19;100006.38;;;11.13;96.28
2675;BME280;1347;42.122;24.746;2024-03-17T06:40:50;100012.41;;;11.79;95.34
2675;BME280;1347;42.122;24.746;2024-03-17T06:43:18;100011.81;;;12.65;90.60
2675;BME280;1347;42.122;24.746;2024-03-17T06:45:54;100019.22;;;13.17;85.85
2675;BME280;1347;42.122;24.746;2024-03-17T06:48:21;100017.41;;;13.29;84.99
2675;BME280;1347;42.122;24.746;2024-03-17T06:50:48;100015.38;;;13.59;84.05
2675;BME280;1347;42.122;24.746;2024-03-17T06:53:17;100016.84;;;13.49;83.66
2675;BME280;1347;42.122;24.746;2024-03-17T06:55:44;100017.06;;;13.34;83.79
2675;BME280;1347;42.122;24.746;2024-03-17T06:58:13;100020.66;;;13.38;83.46
2675;BME280;1347;42.122;24.746;2024-03-17T07:00:40;100017.91;;;13.38;83.63
2675;BME280;1347;42.122;24.746;2024-03-17T07:03:09;100016.56;;;13.24;84.56
2675;BME280;1347;42.122;24.746;2024-03-17T07:05:36;100021.00;;;13.03;84.85
2675;BME280;1347;42.122;24.746;2024-03-17T07:08:04;100018.41;;;12.87;86.08
2675;BME280;1347;42.122;24.746;2024-03-17T07:10:31;100019.28;;;13.21;84.85
2675;BME280;1347;42.122;24.746;2024-03-17T07:12:58;100017.75;;;13.60;83.57
2675;BME280;1347;42.122;24.746;2024-03-17T07:15:26;100017.88;;;14.12;81.92
2675;BME280;1347;42.122;24.746;2024-03-17T07:17:53;100026.31;;;14.36;80.33
2675;BME280;1347;42.122;24.746;2024-03-17T07:20:20;100018.63;;;15.32;77.69
2675;BME280;1347;42.122;24.746;2024-03-17T07:22:48;100023.09;;;15.69;75.72
2675;BME280;1347;42.122;24.746;2024-03-17T07:25:15;100027.50;;;16.12;75.23
2675;BME280;1347;42.122;24.746;2024-03-17T07:27:42;100031.00;;;17.05;70.89
2675;BME280;1347;42.122;24.746;2024-03-17T07:30:10;100022.63;;;18.44;65.87
2675;BME280;1347;42.122;24.746;2024-03-17T07:32:38;100025.91;;;19.78;59.43
2675;BME280;1347;42.122;24.746;2024-03-17T07:35:05;100026.84;;;20.69;57.52
2675;BME280;1347;42.122;24.746;2024-03-17T07:37:32;100017.91;;;22.12;52.31
2675;BME280;1347;42.122;24.746;2024-03-17T07:39:59;100026.19;;;23.22;48.31
2675;BME280;1347;42.122;24.746;2024-03-17T07:42:26;100033.94;;;23.85;45.79
2675;BME280;1347;42.122;24.746;2024-03-17T07:44:53;100030.06;;;24.68;42.77
2675;BME280;1347;42.122;24.746;2024-03-17T07:47:20;100039.69;;;24.67;42.81
2675;BME280;1347;42.122;24.746;2024-03-17T07:49:49;100027.38;;;24.64;40.94
2675;BME280;1347;42.122;24.746;2024-03-17T07:52:15;100023.41;;;25.30;41.08
2675;BME280;1347;42.122;24.746;2024-03-17T07:54:44;100019.66;;;25.86;39.84
2675;BME280;1347;42.122;24.746;2024-03-17T07:57:12;100028.66;;;26.89;37.90
2675;BME280;1347;42.122;24.746;2024-03-17T07:59:40;100018.34;;;26.09;38.95
2675;BME280;1347;42.122;24.746;2024-03-17T08:02:08;100019.91;;;26.01;38.74
2675;BME280;1347;42.122;24.746;2024-03-17T08:04:35;100013.94;;;25.15;39.43
2675;BME280;1347;42.122;24.746;2024-03-17T08:07:04;100012.19;;;24.74;40.54
2675;BME280;1347;42.122;24.746;2024-03-17T08:09:31;100012.88;;;24.31;41.15
2675;BME280;1347;42.122;24.746;2024-03-17T08:11:58;100000.69;;;23.33;43.12
2675;BME280;1347;42.122;24.746;2024-03-17T08:14:25;100004.59;;;23.10;43.61
2675;BME280;1347;42.122;24.746;2024-03-17T08:16:52;100006.81;;;23.15;43.25
2675;BME280;1347;42.122;24.746;2024-03-17T08:19:19;100003.44;;;23.07;43.33
2675;BME280;1347;42.122;24.746;2024-03-17T08:21:46;100004.78;;;22.09;44.35
2675;BME280;1347;42.122;24.746;2024-03-17T08:24:14;100004.06;;;21.89;45.34
2675;BME280;1347;42.122;24.746;2024-03-17T08:26:41;100004.88;;;20.94;46.36
2675;BME280;1347;42.122;24.746;2024-03-17T08:29:10;100001.56;;;20.09;49.46
2675;BME280;1347;42.122;24.746;2024-03-17T08:31:38;99990.53;;;19.52;51.27
2675;BME280;1347;42.122;24.746;2024-03-17T08:34:04;99992.09;;;19.80;50.56
2675;BME280;1347;42.122;24.746;2024-03-17T08:36:31;99990.25;;;19.97;50.65
2675;BME280;1347;42.122;24.746;2024-03-17T08:38:58;99997.00;;;20.69;50.05
2675;BME280;1347;42.122;24.746;2024-03-17T08:41:28;99987.03;;;21.67;47.91
2675;BME280;1347;42.122;24.746;2024-03-17T08:43:56;99989.13;;;23.05;45.14
2675;BME280;1347;42.122;24.746;2024-03-17T08:46:24;99993.91;;;24.35;42.19
2675;BME280;1347;42.122;24.746;2024-03-17T08:48:51;99986.44;;;25.23;40.67
2675;BME280;1347;42.122;24.746;2024-03-17T08:51:18;99986.88;;;25.21;39.62
2675;BME280;1347;42.122;24.746;2024-03-17T08:53:45;99979.88;;;25.79;38.69
2675;BME280;1347;42.122;24.746;2024-03-17T08:56:12;99983.16;;;25.55;38.58
2675;BME280;1347;42.122;24.746;2024-03-17T08:58:41;99981.22;;;25.12;40.03
2675;BME280;1347;42.122;24.746;2024-03-17T09:01:08;99967.88;;;24.47;40.26
2675;BME280;1347;42.122;24.746;2024-03-17T09:03:35;99974.28;;;23.34;42.63
2675;BME280;1347;42.122;24.746;2024-03-17T09:06:02;99971.34;;;23.66;43.04
2675;BME280;1347;42.122;24.746;2024-03-17T09:08:29;99973.41;;;24.73;41.42
2675;BME280;1347;42.122;24.746;2024-03-17T09:10:58;99969.31;;;25.30;40.03
2675;BME280;1347;42.122;24.746;2024-03-17T09:13:25;99966.75;;;24.79;40.22
2675;BME280;1347;42.122;24.746;2024-03-17T09:15:55;99961.97;;;25.02;40.51
2675;BME280;1347;42.122;24.746;2024-03-17T09:18:23;99963.06;;;24.48;40.60
2675;BME280;1347;42.122;24.746;2024-03-17T09:20:58;99957.97;;;23.45;42.76
2675;BME280;1347;42.122;24.746;2024-03-17T09:23:25;99967.00;;;23.24;43.04
2675;BME280;1347;42.122;24.746;2024-03-17T09:25:57;99945.31;;;23.28;44.62
2675;BME280;1347;42.122;24.746;2024-03-17T09:28:24;99962.81;;;23.82;42.89
2675;BME280;1347;42.122;24.746;2024-03-17T09:30:51;99955.94;;;23.33;44.25
2675;BME280;1347;42.122;24.746;2024-03-17T09:33:21;99947.94;;;23.85;43.71
2675;BME280;1347;42.122;24.746;2024-03-17T09:35:55;99950.09;;;24.63;41.91
2675;BME280;1347;42.122;24.746;2024-03-17T09:38:22;99943.81;;;26.81;37.99
2675;BME280;1347;42.122;24.746;2024-03-17T09:40:50;99951.75;;;28.03;36.46
2675;BME280;1347;42.122;24.746;2024-03-17T09:43:19;99949.16;;;27.48;35.75
2675;BME280;1347;42.122;24.746;2024-03-17T09:45:46;99940.81;;;27.12;36.12
2675;BME280;1347;42.122;24.746;2024-03-17T09:48:15;99935.81;;;26.89;37.65
2675;BME280;1347;42.122;24.746;2024-03-17T09:50:50;99935.84;;;27.91;36.35
2675;BME280;1347;42.122;24.746;2024-03-17T09:53:23;99947.53;;;29.38;34.01
2675;BME280;1347;42.122;24.746;2024-03-17T09:55:50;99941.69;;;30.93;32.60
2675;BME280;1347;42.122;24.746;2024-03-17T09:58:19;99944.88;;;32.48;30.71
2675;BME280;1347;42.122;24.746;2024-03-17T10:00:46;99949.22;;;33.92;28.46
2675;BME280;1347;42.122;24.746;2024-03-17T10:03:41;99946.91;;;33.80;28.28
2675;BME280;1347;42.122;24.746;2024-03-17T10:06:09;99943.94;;;35.59;27.54
2675;BME280;1347;42.122;24.746;2024-03-17T10:08:43;99943.09;;;36.80;25.84
2675;BME280;1347;42.122;24.746;2024-03-17T10:11:12;99936.84;;;36.81;26.18
2675;BME280;1347;42.122;24.746;2024-03-17T10:13:41;99932.53;;;35.89;26.57
2675;BME280;1347;42.122;24.746;2024-03-17T10:16:20;99929.41;;;35.62;27.15
2675;BME280;1347;42.122;24.746;2024-03-17T10:18:47;99924.66;;;35.70;25.92
2675;BME280;1347;42.122;24.746;2024-03-17T10:21:25;99929.00;;;37.51;26.18
2675;BME280;1347;42.122;24.746;2024-03-17T10:24:05;99925.53;;;37.72;25.45
2675;BME280;1347;42.122;24.746;2024-03-17T10:26:35;99922.94;;;38.13;24.32
2675;BME280;1347;42.122;24.746;2024-03-17T10:29:02;99922.47;;;38.36;24.65
2675;BME280;1347;42.122;24.746;2024-03-17T10:31:29;99926.59;;;39.50;23.48
2675;BME280;1347;42.122;24.746;2024-03-17T10:34:01;99915.84;;;39.71;22.92
2675;BME280;1347;42.122;24.746;2024-03-17T10:36:30;99905.78;;;35.92;25.19
2675;BME280;1347;42.122;24.746;2024-03-17T10:38:57;99899.09;;;32.95;27.57
2675;BME280;1347;42.122;24.746;2024-03-17T10:41:25;99887.25;;;31.72;28.82
2675;BME280;1347;42.122;24.746;2024-03-17T10:43:54;99885.44;;;30.80;29.96
2675;BME280;1347;42.122;24.746;2024-03-17T10:46:24;99879.28;;;32.24;28.66
2675;BME280;1347;42.122;24.746;2024-03-17T10:48:53;99882.88;;;33.23;27.80
2675;BME280;1347;42.122;24.746;2024-03-17T10:51:20;99885.91;;;32.92;28.32
2675;BME280;1347;42.122;24.746;2024-03-17T10:53:50;99877.66;;;32.82;28.12
2675;BME280;1347;42.122;24.746;2024-03-17T10:56:19;99869.47;;;30.77;29.98
2675;BME280;1347;42.122;24.746;2024-03-17T10:58:50;99862.97;;;28.46;32.39
2675;BME280;1347;42.122;24.746;2024-03-17T11:01:22;99856.16;;;28.38;33.27
2675;BME280;1347;42.122;24.746;2024-03-17T11:03:51;99858.25;;;28.97;33.04
2675;BME280;1347;42.122;24.746;2024-03-17T11:06:18;99856.97;;;29.62;32.22
2675;BME280;1347;42.122;24.746;2024-03-17T11:08:46;99856.81;;;30.26;30.98
2675;BME280;1347;42.122;24.746;2024-03-17T11:11:35;99846.97;;;30.42;30.33
2675;BME280;1347;42.122;24.746;2024-03-17T11:14:16;99847.66;;;30.11;30.72
2675;BME280;1347;42.122;24.746;2024-03-17T11:16:43;99837.53;;;29.00;31.83
2675;BME280;1347;42.122;24.746;2024-03-17T11:19:14;99838.94;;;28.36;32.95
2675;BME280;1347;42.122;24.746;2024-03-17T11:21:42;99838.34;;;28.08;33.37
2675;BME280;1347;42.122;24.746;2024-03-17T11:24:19;99826.06;;;27.73;33.20
2675;BME280;1347;42.122;24.746;2024-03-17T11:26:47;99820.22;;;27.20;34.67
2675;BME280;1347;42.122;24.746;2024-03-17T11:29:27;99819.56;;;26.83;34.81
2675;BME280;1347;42.122;24.746;2024-03-17T11:31:55;99811.44;;;26.94;34.35
2675;BME280;1347;42.122;24.746;2024-03-17T11:34:32;99814.19;;;26.52;34.93
2675;BME280;1347;42.122;24.746;2024-03-17T11:37:00;99808.72;;;26.12;35.18
2675;BME280;1347;42.122;24.746;2024-03-17T11:39:48;99807.00;;;26.23;34.96
2675;BME280;1347;42.122;24.746;2024-03-17T11:42:23;99806.69;;;25.85;35.50
2675;BME280;1347;42.122;24.746;2024-03-17T11:45:02;99803.88;;;25.85;35.72
2675;BME280;1347;42.122;24.746;2024-03-17T11:47:39;99808.56;;;26.15;35.11
2675;BME280;1347;42.122;24.746;2024-03-17T11:50:09;99800.28;;;26.48;35.61
2675;BME280;1347;42.122;24.746;2024-03-17T11:52:36;99797.63;;;25.22;36.76
2675;BME280;1347;42.122;24.746;2024-03-17T11:55:15;99789.59;;;24.72;37.39
2675;BME280;1347;42.122;24.746;2024-03-17T11:57:43;99788.72;;;24.84;37.17
2675;BME280;1347;42.122;24.746;2024-03-17T12:00:19;99783.50;;;25.44;36.44
2675;BME280;1347;42.122;24.746;2024-03-17T12:02:48;99782.28;;;26.64;35.61
2675;BME280;1347;42.122;24.746;2024-03-17T12:05:15;99785.03;;;28.19;34.04
2675;BME280;1347;42.122;24.746;2024-03-17T12:07:42;99780.47;;;27.83;33.77
2675;BME280;1347;42.122;24.746;2024-03-17T12:10:10;99776.56;;;26.91;34.21
2675;BME280;1347;42.122;24.746;2024-03-17T12:12:36;99772.25;;;26.72;34.27
2675;BME280;1347;42.122;24.746;2024-03-17T12:15:16;99772.75;;;26.61;34.59
2675;BME280;1347;42.122;24.746;2024-03-17T12:17:42;99770.72;;;27.13;33.21
2675;BME280;1347;42.122;24.746;2024-03-17T12:20:16;99769.97;;;27.03;33.27
2675;BME280;1347;42.122;24.746;2024-03-17T12:22:43;99772.78;;;27.03;34.41
2675;BME280;1347;42.122;24.746;2024-03-17T12:25:17;99770.03;;;26.94;34.32
2675;BME280;1347;42.122;24.746;2024-03-17T12:27:44;99758.69;;;26.61;33.55
2675;BME280;1347;42.122;24.746;2024-03-17T12:30:13;99768.47;;;27.26;31.77
2675;BME280;1347;42.122;24.746;2024-03-17T12:32:41;99762.41;;;28.29;29.84
2675;BME280;1347;42.122;24.746;2024-03-17T12:35:13;99771.44;;;27.94;29.66
2675;BME280;1347;42.122;24.746;2024-03-17T12:37:39;99763.38;;;28.02;30.03
2675;BME280;1347;42.122;24.746;2024-03-17T12:40:18;99753.69;;;27.64;30.36
2675;BME280;1347;42.122;24.746;2024-03-17T12:42:47;99755.22;;;27.41;30.71
2675;BME280;1347;42.122;24.746;2024-03-17T12:45:19;99747.28;;;27.64;30.22
2675;BME280;1347;42.122;24.746;2024-03-17T12:47:48;99753.59;;;27.97;29.71
2675;BME280;1347;42.122;24.746;2024-03-17T12:50:14;99745.63;;;27.57;28.53
2675;BME280;1347;42.122;24.746;2024-03-17T12:52:51;99741.53;;;27.58;28.17
2675;BME280;1347;42.122;24.746;2024-03-17T12:55:18;99737.88;;;27.10;28.59
2675;BME280;1347;42.122;24.746;2024-03-17T12:58:07;99738.97;;;27.13;28.61
2675;BME280;1347;42.122;24.746;2024-03-17T13:01:03;99724.94;;;27.03;27.98
2675;BME280;1347;42.122;24.746;2024-03-17T13:03:31;99722.16;;;26.52;28.61
2675;BME280;1347;42.122;24.746;2024-03-17T13:05:59;99717.56;;;26.13;29.13
2675;BME280;1347;42.122;24.746;2024-03-17T13:08:28;99707.13;;;25.77;28.94
2675;BME280;1347;42.122;24.746;2024-03-17T13:10:57;99714.41;;;26.20;28.97
2675;BME280;1347;42.122;24.746;2024-03-17T13:13:22;99705.72;;;25.90;28.98
2675;BME280;1347;42.122;24.746;2024-03-17T13:15:49;99711.28;;;25.36;29.49
2675;BME280;1347;42.122;24.746;2024-03-17T13:18:19;99707.13;;;24.07;31.24